Metar Cercanos

 

LEPA - Palma De Mallorc, Spain
Distance from station: ONO 38km
Actualización: Tue, 28-Jun-2022 4:00am CEST
Few Clouds
Few Clouds
 Viento del SE
Viento: SE 6 km/h
Temperatura: 23°C
Rocío: 19°C
Humedad: 78%
Barómetro: 1016 hPa
Clouds: Few Clouds
Visibility: 10 km
Cloud details: Few Clouds 1219 m
2022/06/28 02:00 LEPA 280200Z 14003KT 9999 FEW040 23/19 Q1016 NOSIG
LEMH - Mahon/Menorca Is, Spain
Distance from station: ENE 105km
Actualización: Tue, 28-Jun-2022 4:00am CEST
Despejado
Despejado
 Viento del N
Viento: N 24 km/h
Temperatura: 22°C
Rocío: 15°C
Humedad: 65%
Barómetro: 1015 hPa
Resumen: Despejado
Visibility: greater than 10 km
2022/06/28 02:00 LEMH 280200Z AUTO 35013KT 310V020 CAVOK 22/15 Q1015
 
LEIB - Ibiza/Es Codola, Spain
Distance from station: OSO 165km
Actualización: Tue, 28-Jun-2022 4:00am CEST
Despejado
Despejado
 Viento del NE
Viento: NE 9 km/h
Temperatura: 23°C
Rocío: 18°C
Humedad: 74%
Barómetro: 1016 hPa
Resumen: Despejado
Visibility: greater than 10 km
2022/06/28 02:00 LEIB 280200Z 04005KT 350V070 CAVOK 23/18 Q1016 NOSIG
LEBL - Barcelona Airpor, Spain
Distance from station: NNO 225km
Actualización: Tue, 28-Jun-2022 4:00am CEST
Few Clouds
Few Clouds
 Viento del NNO
Viento: NNO 28 km/h
Temperatura: 22°C
Rocío: 14°C
Humedad: 61%
Barómetro: 1016 hPa
Clouds: Few Clouds
Visibility: 10 km
Cloud details: Few Clouds 762 m
2022/06/28 02:00 LEBL 280200Z 33015KT 310V010 9999 FEW025 22/14 Q1016 TEMPO FEW025CB
 
LEVC - Valencia (civ/Mi, Spain
Distance from station: NO 188km
Actualización: Tue, 28-Jun-2022 4:00am CEST
Despejado
Despejado
 Viento del O
Viento: O 7 km/h
Temperatura: 18°C
Rocío: 17°C
Humedad: 94%
Barómetro: 1018 hPa
Resumen: Despejado
Visibility: greater than 10 km
2022/06/28 02:00 LEVC 280200Z 26004KT 230V290 CAVOK 18/17 Q1018 NOSIG
LEGE - Gerona/Costa Bra, Spain
Distance from station: N 276km
Actualización: Tue, 28-Jun-2022 4:00am CEST
Despejado
Despejado
 Viento del varies
Viento: varies 2 km/h
Temperatura: 15°C
Rocío: 14°C
Humedad: 94%
Barómetro: 1016 hPa
Resumen: Despejado
Visibility: greater than 10 km
2022/06/28 02:00 LEGE 280200Z VRB01KT CAVOK 15/14 Q1016
 
LEAL - Alicante/El Alte, Spain
Distance from station: OSO 344km
Actualización: Tue, 28-Jun-2022 4:00am CEST
Few Clouds
Few Clouds
 Viento del OSO
Viento: OSO 9 km/h
Temperatura: 21°C
Rocío: 19°C
Humedad: 88%
Barómetro: 1017 hPa
Clouds: Few Clouds
Visibility: 10 km
Cloud details: Few Clouds 549 m
2022/06/28 02:00 LEAL 280200Z 25005KT 9999 FEW018 21/19 Q1017 NOSIG
LEAM - Almeria Airport, Spain
Distance from station: SSO 56km
Actualización: Tue, 28-Jun-2022 4:00am CEST
Despejado
Despejado
 Viento del varies
Viento: varies 4 km/h
Temperatura: 19°C
Rocío: 13°C
Humedad: 68%
Barómetro: 1017 hPa
Resumen: Despejado
Visibility: greater than 10 km
2022/06/28 02:00 LEAM 280200Z AUTO VRB02KT CAVOK 19/13 Q1017
 
LEZG - Zaragoza (mil/Ci, Spain
Distance from station: NO 431km
Actualización: Tue, 28-Jun-2022 4:00am CEST
Despejado
Despejado
 Viento del ONO
Viento: ONO 31 km/h
Temperatura: 16°C
Rocío: 9°C
Humedad: 63%
Barómetro: 1021 hPa
Resumen: Despejado
Visibility: greater than 10 km
2022/06/28 02:00 LEZG 280200Z 29017KT CAVOK 16/09 Q1021
LEMD - Madrid/Barajas, Spain
Distance from station: ONO 234km
Actualización: Tue, 28-Jun-2022 4:00am CEST
Despejado
Despejado
 Viento del E
Viento: E 4 km/h
Temperatura: 17°C
Rocío: 7°C
Humedad: 52%
Barómetro: 1020 hPa
Resumen: Despejado
Visibility: greater than 10 km
2022/06/28 02:00 LEMD 280200Z 08002KT CAVOK 17/07 Q1020 NOSIG
 
LEGR - Granada Airport, Spain
Distance from station: OSO 62km
Actualización: Tue, 28-Jun-2022 4:00am CEST
Despejado
Despejado
 Viento del varies
Viento: varies 2 km/h
Temperatura: 14°C
Rocío: 1°C
Humedad: 41%
Barómetro: 1019 hPa
Resumen: Despejado
Visibility: greater than 10 km
2022/06/28 02:00 LEGR 280200Z AUTO VRB01KT CAVOK 14/01 Q1019
LEMG - Malaga (civ/Mil), Spain
Distance from station: OSO 227km
Actualización: Tue, 28-Jun-2022 4:00am CEST
Despejado
Despejado
 Viento del E
Viento: E 20 km/h
Temperatura: 20°C
Rocío: 13°C
Humedad: 64%
Barómetro: 1016 hPa
Resumen: Despejado
Visibility: greater than 10 km
2022/06/28 02:00 LEMG 280200Z 09011KT 060V130 CAVOK 20/13 Q1016 NOSIG
 
LEZL - Sevilla (civ/Mil, Spain
Distance from station: S 318km
Actualización: Tue, 28-Jun-2022 4:00am CEST
Despejado
Despejado
 Viento del E
Viento: E 4 km/h
Temperatura: 17°C
Rocío: 10°C
Humedad: 64%
Barómetro: 1016 hPa
Resumen: Despejado
Visibility: greater than 10 km
2022/06/28 02:00 LEZL 280200Z AUTO 10002KT CAVOK 17/10 Q1016
LEVT - Vitoria, Spain
Distance from station: NO 226km
Actualización: Tue, 28-Jun-2022 4:00am CEST
Parcialmente nuboso
Parcialmente nuboso
 Viento del calm
Viento: Calma
Temperatura: 7°C
Rocío: 7°C
Humedad: 100%
Barómetro: 1023 hPa
Clouds: Parcialmente nuboso
Visibility: 10 km
Cloud details: Parcialmente nuboso 701 m
2022/06/28 02:00 LEVT 280200Z 00000KT 9999 SCT023 07/07 Q1023
 
LEBB - Bilbao/Sondica, Spain
Distance from station: NNO 235km
Actualización: Tue, 28-Jun-2022 4:00am CEST
Parcialmente nuboso
Parcialmente nuboso
 Viento del ENE
Viento: ENE 6 km/h
Temperatura: 12°C
Rocío: 11°C
Humedad: 94%
Barómetro: 1023 hPa
Clouds: Parcialmente nuboso
Visibility: 10 km
Cloud details: Parcialmente nuboso 1036 m
2022/06/28 02:00 LEBB 280200Z AUTO 07003KT 9999 SCT034 12/11 Q1023
LESO - San Sebastian/Fu, Spain
Distance from station: N 231km
Actualización: Tue, 28-Jun-2022 4:00am CEST
Cubierto
Cubierto
 Viento del SSO
Viento: SSO 6 km/h
Temperatura: 16°C
Rocío: 15°C
Humedad: 94%
Barómetro: 1022 hPa
Clouds: Cubierto
Visibility: 10 km
Cloud details: Cubierto 1158 m
2022/06/28 02:00 LESO 280200Z AUTO 21003KT 190V250 9999 OVC038 16/15 Q1022
 
LEVD - Valladolid(Mil/C, Spain
Distance from station: ONO 239km
Actualización: Tue, 28-Jun-2022 4:00am CEST
Despejado
Despejado
 Viento del E
Viento: E 11 km/h
Temperatura: 9°C
Sensación frio: 7°C
Rocío: 7°C
Humedad: 87%
Barómetro: 1022 hPa
Resumen: Despejado
Visibility: greater than 10 km
2022/06/28 02:00 LEVD 280200Z AUTO 08006KT CAVOK 09/07 Q1022
LESA - Salamanca (civ/M, Spain
Distance from station: ONO 349km
Actualización: Tue, 28-Jun-2022 4:00am CEST
Despejado
Despejado
 Viento del N
Viento: N 11 km/h
Temperatura: 9°C
Sensación frio: 7°C
Rocío: 7°C
Humedad: 87%
Barómetro: 1021 hPa
Clouds: Despejado
Visibility: 9 km
2022/06/28 02:00 LESA 280200Z AUTO 01006KT 9000 NCD 09/07 Q1021
 
LEXJ - Santander/Paraya, Spain
Distance from station: NNO 247km
Actualización: Tue, 28-Jun-2022 4:00am CEST
Despejado
Despejado
 Viento del calm
Viento: Calma
Temperatura: 12°C
Rocío: 10°C
Humedad: 88%
Barómetro: 1022 hPa
Resumen: Despejado
Visibility: greater than 10 km
2022/06/28 02:00 LEXJ 280200Z AUTO 00000KT CAVOK 12/10 Q1022
LEAS - Asturias/Aviles, Spain
Distance from station: NO 214km
Actualización: Tue, 28-Jun-2022 4:00am CEST
Despejado
Despejado
 Viento del SO
Viento: SO 6 km/h
Temperatura: 14°C
Rocío: 11°C
Humedad: 82%
Barómetro: 1022 hPa
Resumen: Despejado
Visibility: greater than 10 km
2022/06/28 02:00 LEAS 280200Z AUTO 23003KT CAVOK 14/11 Q1022
 
LECO - La Coruna/Alvedr, Spain
Distance from station: ONO 222km
Actualización: Tue, 28-Jun-2022 4:00am CEST
Despejado
Despejado
 Viento del S
Viento: S 6 km/h
Temperatura: 10°C
Rocío: 10°C
Humedad: 100%
Barómetro: 1023 hPa
Resumen: Despejado
Visibility: greater than 10 km
2022/06/28 02:00 LECO 280200Z AUTO 17003KT CAVOK 10/10 Q1023
LEVX - Vigo/Peinador, Spain
Distance from station: O 214km
Actualización: Tue, 28-Jun-2022 4:00am CEST
Despejado
Despejado
 Viento del varies
Viento: varies 4 km/h
Temperatura: 12°C
Rocío: 9°C
Humedad: 82%
Barómetro: 1022 hPa
Resumen: Despejado
Visibility: greater than 10 km
2022/06/28 02:00 LEVX 280200Z VRB02KT CAVOK 12/09 Q1022 NOSIG